Time;durP1;ratioP1;P1;durP2;ratioP2;P2;SDS_P1;SDS_P2;PMS_P1;PMS_P2;Temp;Humidity;BMP_temperature;BMP_pressure;BME280_temperature;BME280_humidity;BME280_pressure;Samples;Min_cycle;Max_cycle;Signal;HPM_P1;HPM_P2
2022/10/14 00:01:33;;;;;;;4.07;2.40;;;16.10;81.30;;;;;;5025652;28;20037;-77
2022/10/14 00:03:59;;;;;;;3.92;2.38;;;16.10;81.20;;;;;;5024305;28;20442;-77
2022/10/14 00:06:27;;;;;;;4.57;2.38;;;16.10;81.20;;;;;;5024630;28;20029;-77
2022/10/14 00:08:54;;;;;;;4.50;2.50;;;16.10;81.20;;;;;;5025741;28;20033;-74
2022/10/14 00:11:25;;;;;;;4.82;2.70;;;16.10;81.20;;;;;;5025299;28;20029;-78
2022/10/14 00:13:54;;;;;;;4.88;2.95;;;16.10;81.20;;;;;;5024017;28;20029;-76
2022/10/14 00:16:26;;;;;;;5.18;2.65;;;16.10;81.00;;;;;;5024446;28;20039;-76
2022/10/14 00:18:52;;;;;;;5.30;2.85;;;16.20;81.20;;;;;;5025320;28;20033;-77
2022/10/14 00:21:18;;;;;;;4.05;2.47;;;16.10;81.20;;;;;;5023836;28;20043;-77
2022/10/14 00:23:44;;;;;;;4.68;2.53;;;16.10;81.40;;;;;;5025531;28;20294;-76
2022/10/14 00:26:22;;;;;;;4.68;2.65;;;16.10;81.40;;;;;;5025312;28;20033;-77
2022/10/14 00:28:48;;;;;;;4.43;2.67;;;16.10;81.40;;;;;;5024442;28;20568;-76
2022/10/14 00:31:14;;;;;;;5.07;2.55;;;16.10;81.30;;;;;;5023547;28;20116;-76
2022/10/14 00:33:40;;;;;;;4.10;2.45;;;16.10;81.40;;;;;;5025245;28;20056;-76
2022/10/14 00:36:07;;;;;;;4.32;2.42;;;16.10;81.40;;;;;;5023995;28;20071;-76
2022/10/14 00:38:33;;;;;;;4.60;2.60;;;16.10;81.40;;;;;;5025006;28;20040;-77
2022/10/14 00:40:59;;;;;;;4.32;2.60;;;16.10;81.50;;;;;;5023410;28;20025;-77
2022/10/14 00:43:26;;;;;;;4.30;2.40;;;16.10;81.50;;;;;;5023759;28;20048;-76
2022/10/14 00:45:51;;;;;;;4.88;2.70;;;16.10;81.50;;;;;;5023722;28;20556;-77
2022/10/14 00:48:22;;;;;;;4.88;2.80;;;16.10;81.60;;;;;;5025131;28;20038;-77
2022/10/14 00:50:51;;;;;;;3.90;2.40;;;16.10;81.50;;;;;;5024574;28;20499;-76
2022/10/14 00:53:17;;;;;;;4.65;2.78;;;16.00;81.50;;;;;;5025335;28;20028;-77
2022/10/14 00:55:43;;;;;;;4.50;2.65;;;16.10;81.60;;;;;;5025260;28;20686;-78
2022/10/14 00:58:09;;;;;;;4.57;2.75;;;16.00;81.60;;;;;;5025310;28;20506;-77
2022/10/14 01:00:35;;;;;;;5.20;2.97;;;16.10;82.20;;;;;;5024786;28;20037;-78
2022/10/14 01:03:16;;;;;;;4.05;2.30;;;16.10;81.50;;;;;;5024913;28;20025;-77
2022/10/14 01:06:07;;;;;;;3.58;2.20;;;16.10;81.50;;;;;;5023434;28;20517;-77
2022/10/14 01:09:07;;;;;;;4.13;2.47;;;16.10;81.40;;;;;;5013254;28;20517;-76
2022/10/14 01:11:40;;;;;;;6.68;3.92;;;16.10;81.30;;;;;;5024387;28;20035;-77
2022/10/14 01:14:24;;;;;;;4.88;2.90;;;16.10;81.40;;;;;;5025190;28;20108;-77
2022/10/14 01:16:58;;;;;;;4.45;2.70;;;16.10;81.30;;;;;;5024590;28;20036;-77
2022/10/14 01:19:35;;;;;;;5.25;3.10;;;16.20;81.30;;;;;;5024753;28;20510;-77
2022/10/14 01:22:16;;;;;;;4.15;2.53;;;16.20;81.30;;;;;;5023087;28;20029;-77
2022/10/14 01:25:09;;;;;;;4.53;2.70;;;16.20;81.30;;;;;;5024537;28;20079;-77
2022/10/14 01:28:05;;;;;;;4.57;2.75;;;16.10;81.50;;;;;;5017044;28;20551;-76
2022/10/14 01:30:35;;;;;;;4.57;2.67;;;16.10;81.50;;;;;;5028146;28;20030;-76
2022/10/14 01:33:17;;;;;;;4.90;2.80;;;16.10;81.60;;;;;;5027207;28;20028;-76
2022/10/14 01:35:55;;;;;;;4.25;2.40;;;16.10;81.50;;;;;;5027362;28;20040;-77
2022/10/14 01:38:36;;;;;;;6.65;3.17;;;16.10;81.60;;;;;;5028542;28;20494;-77
2022/10/14 01:41:17;;;;;;;3.67;2.30;;;16.10;81.60;;;;;;5027912;28;20056;-76
2022/10/14 01:43:46;;;;;;;3.85;2.45;;;16.10;81.60;;;;;;5028772;28;20095;-76
2022/10/14 01:46:12;;;;;;;4.63;2.70;;;16.10;81.50;;;;;;5026734;28;20030;-77
2022/10/14 01:48:44;;;;;;;4.65;2.65;;;16.00;81.50;;;;;;5027165;28;20030;-77
2022/10/14 01:51:14;;;;;;;;;;;16.00;81.70;;;;;;5027223;28;20025;-76
2022/10/14 01:53:51;;;;;;;4.03;2.60;;;16.00;81.60;;;;;;5028065;28;19940;-77
2022/10/14 01:56:17;;;;;;;4.68;2.80;;;16.00;81.60;;;;;;5028384;28;20037;-76
2022/10/14 01:58:43;;;;;;;5.00;2.70;;;16.00;81.80;;;;;;5026693;28;20449;-77
2022/10/14 02:01:10;;;;;;;4.85;2.72;;;16.00;81.70;;;;;;5027618;28;20033;-76
2022/10/14 02:03:43;;;;;;;4.50;2.60;;;16.10;81.70;;;;;;5027509;28;20037;-76
2022/10/14 02:06:16;;;;;;;4.15;2.60;;;16.00;81.70;;;;;;5026566;28;20121;-76
2022/10/14 02:09:03;;;;;;;4.40;2.53;;;16.00;81.60;;;;;;5026485;28;20114;-77
2022/10/14 02:11:40;;;;;;;4.50;2.80;;;16.10;81.60;;;;;;5025784;28;20021;-76
2022/10/14 02:14:23;;;;;;;4.38;2.72;;;16.10;81.50;;;;;;5026553;28;20037;-77
2022/10/14 02:17:00;;;;;;;5.20;3.05;;;16.10;81.50;;;;;;5027905;28;20525;-76
2022/10/14 02:19:48;;;;;;;5.03;2.70;;;16.10;81.50;;;;;;5027729;28;20033;-76
2022/10/14 02:22:22;;;;;;;5.22;3.28;;;16.10;81.50;;;;;;5027306;28;20025;-77
2022/10/14 02:24:52;;;;;;;3.60;2.15;;;16.10;81.30;;;;;;5026150;28;20387;-76
2022/10/14 02:27:20;;;;;;;5.28;3.25;;;16.10;81.40;;;;;;5026105;28;20084;-77
2022/10/14 02:29:47;;;;;;;4.80;2.90;;;16.10;81.50;;;;;;5027522;28;20029;-77
2022/10/14 02:32:16;;;;;;;5.40;2.70;;;16.10;81.70;;;;;;5027134;28;20073;-76
2022/10/14 02:34:46;;;;;;;5.00;2.90;;;16.10;81.70;;;;;;5025994;28;20511;-76
2022/10/14 02:37:12;;;;;;;4.22;2.60;;;16.10;81.70;;;;;;5026986;28;20354;-76
2022/10/14 02:39:43;;;;;;;4.07;2.22;;;16.10;81.70;;;;;;5026234;28;20141;-76
2022/10/14 02:42:08;;;;;;;4.18;2.40;;;16.10;81.70;;;;;;5027134;28;20041;-77
2022/10/14 02:44:34;;;;;;;4.18;2.50;;;16.10;81.70;;;;;;5027108;28;20439;-76
2022/10/14 02:46:59;;;;;;;4.97;2.80;;;16.10;81.80;;;;;;5007863;28;20040;-76
2022/10/14 02:49:25;;;;;;;5.50;2.80;;;16.10;81.80;;;;;;5014831;28;20025;-76
2022/10/14 02:51:50;;;;;;;5.15;2.85;;;16.00;81.80;;;;;;5022859;28;20041;-76
2022/10/14 02:54:16;;;;;;;4.40;2.63;;;16.00;81.80;;;;;;5026133;28;20117;-76
2022/10/14 02:56:42;;;;;;;4.57;2.70;;;16.00;81.80;;;;;;5026650;28;20079;-75
2022/10/14 02:59:07;;;;;;;4.22;2.53;;;16.00;81.80;;;;;;5025792;28;20025;-75
2022/10/14 03:01:33;;;;;;;4.60;2.72;;;16.00;81.90;;;;;;5024885;28;20029;-76
2022/10/14 03:03:58;;;;;;;4.55;2.58;;;16.00;81.80;;;;;;5025358;28;20092;-76
2022/10/14 03:06:24;;;;;;;5.32;2.90;;;16.00;81.80;;;;;;5026353;28;20025;-76
2022/10/14 03:08:49;;;;;;;4.70;2.85;;;16.00;81.90;;;;;;5025741;28;20034;-76
2022/10/14 03:11:15;;;;;;;3.97;2.20;;;16.00;81.80;;;;;;5026366;28;20032;-75
2022/10/14 03:13:41;;;;;;;4.88;2.92;;;16.00;81.70;;;;;;5026483;28;20029;-76
2022/10/14 03:16:06;;;;;;;5.97;2.92;;;16.00;81.70;;;;;;5025380;28;20032;-76
2022/10/14 03:18:32;;;;;;;4.78;2.60;;;16.00;81.60;;;;;;5025130;28;20472;-76
2022/10/14 03:20:57;;;;;;;4.82;2.63;;;16.10;81.60;;;;;;5026156;28;20035;-76
2022/10/14 03:23:23;;;;;;;4.00;2.58;;;16.20;81.70;;;;;;5025381;28;20088;-77
2022/10/14 03:25:49;;;;;;;4.78;2.63;;;16.10;81.50;;;;;;5025840;28;20381;-77
2022/10/14 03:28:14;;;;;;;4.32;2.65;;;16.10;81.50;;;;;;5026320;28;20033;-77
2022/10/14 03:30:40;;;;;;;4.72;2.80;;;16.10;81.50;;;;;;5024984;28;20026;-77
2022/10/14 03:33:05;;;;;;;4.15;2.53;;;16.10;81.60;;;;;;5026332;28;20105;-76
2022/10/14 03:35:31;;;;;;;4.55;2.70;;;16.10;81.60;;;;;;5026320;28;20025;-76
2022/10/14 03:37:58;;;;;;;4.50;2.50;;;16.10;81.80;;;;;;5026599;28;20033;-76
2022/10/14 03:40:23;;;;;;;4.53;2.75;;;16.10;81.80;;;;;;5024787;28;20677;-75
2022/10/14 03:42:49;;;;;;;4.00;2.40;;;16.10;81.80;;;;;;5025996;28;20136;-76
2022/10/14 03:45:15;;;;;;;4.75;2.80;;;16.10;81.80;;;;;;5024605;28;20036;-76
2022/10/14 03:47:40;;;;;;;4.82;2.97;;;16.10;81.80;;;;;;5024968;28;20395;-75
2022/10/14 03:50:06;;;;;;;5.32;2.72;;;16.00;81.80;;;;;;5025810;28;20025;-77
2022/10/14 03:52:32;;;;;;;4.20;2.50;;;16.00;81.90;;;;;;5025686;28;20029;-78
2022/10/14 03:54:58;;;;;;;4.88;2.85;;;16.00;81.80;;;;;;5024650;28;20021;-76
2022/10/14 03:57:24;;;;;;;4.95;2.58;;;16.10;82.00;;;;;;5025801;28;20476;-75
2022/10/14 03:59:49;;;;;;;4.43;2.58;;;16.00;81.90;;;;;;5024348;28;20059;-77
2022/10/14 04:02:15;;;;;;;5.07;2.88;;;16.00;81.90;;;;;;5024403;28;20029;-76
2022/10/14 04:04:40;;;;;;;4.70;2.90;;;16.00;81.90;;;;;;5011179;28;20033;-75
2022/10/14 04:07:06;;;;;;;4.82;2.55;;;16.00;82.00;;;;;;4997627;28;20446;-76
2022/10/14 04:09:32;;;;;;;4.80;2.80;;;16.00;82.00;;;;;;5005398;28;20156;-75
2022/10/14 04:11:58;;;;;;;5.70;3.05;;;16.00;82.00;;;;;;5023574;28;20038;-75
2022/10/14 04:14:25;;;;;;;4.43;2.67;;;16.00;82.10;;;;;;5024150;28;20033;-76
2022/10/14 04:16:51;;;;;;;5.05;3.10;;;16.00;82.00;;;;;;5023959;28;20029;-75
2022/10/14 04:19:17;;;;;;;4.72;2.63;;;16.10;81.90;;;;;;5025076;28;20051;-74
2022/10/14 04:21:43;;;;;;;4.10;2.40;;;16.00;81.80;;;;;;5023696;28;20033;-76
2022/10/14 04:24:08;;;;;;;5.03;3.00;;;16.10;82.30;;;;;;5006889;28;20380;-75
2022/10/14 04:26:34;;;;;;;4.35;2.38;;;16.00;81.70;;;;;;5003307;28;20488;-76
2022/10/14 04:29:00;;;;;;;4.88;2.80;;;16.00;81.70;;;;;;5004667;28;20129;-76
2022/10/14 04:31:25;;;;;;;5.38;2.80;;;16.10;81.60;;;;;;5003089;28;20420;-76
2022/10/14 04:33:51;;;;;;;4.40;2.70;;;16.10;81.60;;;;;;5005820;28;20037;-77
2022/10/14 04:36:16;;;;;;;4.00;2.50;;;16.10;81.60;;;;;;5005305;28;20169;-76
2022/10/14 04:38:42;;;;;;;5.07;2.95;;;16.20;81.80;;;;;;5005592;28;20030;-76
2022/10/14 04:41:07;;;;;;;5.32;3.10;;;16.10;81.80;;;;;;5006423;28;20040;-76
2022/10/14 04:43:33;;;;;;;4.97;2.97;;;16.10;81.80;;;;;;5024608;28;20029;-79
2022/10/14 04:45:59;;;;;;;3.85;2.40;;;16.10;81.90;;;;;;5022311;28;20034;-77
2022/10/14 04:48:24;;;;;;;4.88;2.88;;;16.00;81.90;;;;;;5011789;28;20029;-77
2022/10/14 04:50:51;;;;;;;4.22;2.67;;;16.00;81.90;;;;;;5016140;28;20171;-76
2022/10/14 04:53:16;;;;;;;4.28;2.53;;;16.10;82.00;;;;;;5024422;28;20099;-76
2022/10/14 04:55:44;;;;;;;5.25;2.63;;;16.00;81.90;;;;;;5026045;28;20033;-76
2022/10/14 04:58:10;;;;;;;5.50;2.80;;;16.00;82.00;;;;;;5026063;28;20025;-79
2022/10/14 05:00:35;;;;;;;5.65;3.25;;;16.00;81.90;;;;;;5009378;28;20538;-77
2022/10/14 05:03:01;;;;;;;5.07;2.83;;;16.00;82.00;;;;;;5027815;28;20025;-76
2022/10/14 05:05:27;;;;;;;5.25;2.92;;;16.00;81.90;;;;;;5009076;28;20041;-77
2022/10/14 05:07:52;;;;;;;5.30;2.92;;;16.00;82.10;;;;;;5008256;28;20022;-77
2022/10/14 05:10:18;;;;;;;4.72;2.90;;;16.00;82.00;;;;;;5008532;28;20629;-77
2022/10/14 05:12:43;;;;;;;6.45;3.47;;;16.00;82.10;;;;;;5008355;28;20029;-77
2022/10/14 05:15:10;;;;;;;6.40;3.60;;;16.00;82.00;;;;;;5009465;28;20026;-77
2022/10/14 05:17:36;;;;;;;6.15;3.35;;;16.00;82.10;;;;;;5009153;28;20383;-76
2022/10/14 05:20:03;;;;;;;7.03;3.60;;;16.00;82.10;;;;;;5008590;28;20026;-77
2022/10/14 05:22:28;;;;;;;5.97;3.20;;;16.00;82.10;;;;;;5008118;28;20149;-77
2022/10/14 05:24:54;;;;;;;5.95;3.08;;;16.00;82.00;;;;;;5009320;28;20124;-77
2022/10/14 05:27:19;;;;;;;5.97;3.42;;;16.00;82.00;;;;;;5007506;28;20054;-76
2022/10/14 05:29:45;;;;;;;5.70;3.00;;;16.00;81.90;;;;;;5008878;28;20480;-77
2022/10/14 05:32:10;;;;;;;5.63;3.40;;;16.00;81.80;;;;;;5009075;28;20822;-77
2022/10/14 05:34:36;;;;;;;5.80;3.50;;;16.10;82.00;;;;;;5008141;28;20076;-75
2022/10/14 05:37:02;;;;;;;7.38;3.55;;;16.10;81.90;;;;;;5009647;28;20036;-76
2022/10/14 05:39:28;;;;;;;6.97;3.92;;;16.00;81.80;;;;;;5008750;28;20038;-76
2022/10/14 05:41:53;;;;;;;6.55;3.85;;;16.10;81.90;;;;;;5007042;28;20569;-76
2022/10/14 05:44:19;;;;;;;7.38;3.65;;;16.10;81.90;;;;;;5008934;28;20083;-76
2022/10/14 05:46:44;;;;;;;5.95;3.40;;;16.10;82.00;;;;;;5008645;28;20030;-76
2022/10/14 05:49:10;;;;;;;5.68;3.40;;;16.00;82.00;;;;;;5007098;28;20309;-76
2022/10/14 05:51:36;;;;;;;7.07;4.03;;;16.00;82.00;;;;;;5006925;28;20025;-76
2022/10/14 05:54:02;;;;;;;7.20;3.97;;;16.10;82.20;;;;;;5008599;28;20392;-76
2022/10/14 05:56:28;;;;;;;6.20;3.70;;;16.00;82.10;;;;;;5007376;28;20076;-76
2022/10/14 05:58:53;;;;;;;7.05;4.05;;;16.00;82.10;;;;;;5008017;28;20488;-76
2022/10/14 06:01:19;;;;;;;6.75;3.92;;;16.00;82.10;;;;;;5008340;28;20446;-76
2022/10/14 06:03:49;;;;;;;6.30;3.72;;;16.00;82.10;;;;;;5006517;28;20065;-76
2022/10/14 06:06:15;;;;;;;7.93;3.92;;;16.00;82.30;;;;;;5006703;28;20026;-77
2022/10/14 06:08:40;;;;;;;7.10;3.85;;;16.00;82.10;;;;;;5008545;28;20080;-77
2022/10/14 06:11:06;;;;;;;6.47;3.97;;;16.00;82.10;;;;;;5007637;28;20809;-77
2022/10/14 06:13:33;;;;;;;6.85;4.40;;;16.00;82.20;;;;;;5006848;28;20408;-77
2022/10/14 06:16:06;;;;;;;5.95;3.63;;;16.00;82.10;;;;;;5007844;28;20062;-76
2022/10/14 06:18:32;;;;;;;6.60;3.75;;;16.00;82.10;;;;;;5006532;28;20117;-76
2022/10/14 06:20:58;;;;;;;6.43;3.72;;;16.00;82.20;;;;;;5007523;28;20030;-76
2022/10/14 06:23:24;;;;;;;7.30;3.80;;;16.00;82.20;;;;;;5006987;28;20033;-76
2022/10/14 06:25:50;;;;;;;5.65;3.45;;;16.00;82.40;;;;;;5008372;28;20034;-76
2022/10/14 06:28:15;;;;;;;7.68;3.97;;;16.00;82.10;;;;;;5006332;28;20802;-76
2022/10/14 06:30:41;;;;;;;6.20;3.80;;;16.00;82.10;;;;;;5007407;28;20040;-76
2022/10/14 06:33:06;;;;;;;6.05;3.72;;;16.00;82.00;;;;;;5007894;28;20061;-76
2022/10/14 06:35:32;;;;;;;5.85;3.58;;;16.00;82.00;;;;;;5008005;28;20022;-76
2022/10/14 06:37:57;;;;;;;6.43;3.85;;;16.00;82.00;;;;;;5006244;28;20053;-76
2022/10/14 06:40:23;;;;;;;6.93;3.65;;;16.10;82.00;;;;;;5007570;28;20034;-77
2022/10/14 06:42:48;;;;;;;8.05;3.72;;;16.10;81.90;;;;;;5006222;28;20388;-76
2022/10/14 06:45:14;;;;;;;8.77;5.15;;;16.10;81.90;;;;;;5007561;28;20026;-77
2022/10/14 06:47:40;;;;;;;7.05;4.35;;;16.10;81.90;;;;;;5007604;28;20029;-77
2022/10/14 06:50:06;;;;;;;7.32;4.75;;;16.10;82.10;;;;;;5005937;28;20488;-76
2022/10/14 06:52:31;;;;;;;7.60;4.72;;;16.10;82.10;;;;;;5007677;28;20429;-77
2022/10/14 06:54:57;;;;;;;7.38;4.22;;;16.10;82.10;;;;;;5007214;28;20156;-77
2022/10/14 06:57:22;;;;;;;7.05;3.97;;;16.10;82.10;;;;;;5006772;28;20092;-75
2022/10/14 06:59:48;;;;;;;7.15;4.50;;;16.10;82.20;;;;;;5007350;28;20045;-77
2022/10/14 07:02:13;;;;;;;7.82;5.20;;;16.00;82.20;;;;;;5006855;28;20048;-77
2022/10/14 07:04:39;;;;;;;8.00;4.82;;;16.00;82.30;;;;;;5005951;28;20034;-76
2022/10/14 07:07:08;;;;;;;10.10;6.03;;;16.00;82.30;;;;;;5007587;28;20963;-77
2022/10/14 07:09:33;;;;;;;7.60;4.68;;;16.00;82.40;;;;;;5005960;28;20519;-79
2022/10/14 07:12:00;;;;;;;6.32;3.75;;;16.00;82.40;;;;;;5006460;28;20030;-76
2022/10/14 07:14:25;;;;;;;6.95;4.13;;;16.00;82.80;;;;;;5006054;28;20026;-76
2022/10/14 07:16:52;;;;;;;7.90;4.22;;;16.00;82.40;;;;;;5007331;28;20395;-77
2022/10/14 07:19:17;;;;;;;8.38;4.85;;;16.00;82.40;;;;;;5005503;28;20029;-76
2022/10/14 07:21:45;;;;;;;8.82;4.68;;;16.00;82.40;;;;;;5006989;28;20399;-76
2022/10/14 07:24:11;;;;;;;6.60;4.15;;;16.00;82.40;;;;;;5005265;28;20412;-76
2022/10/14 07:26:36;;;;;;;6.80;4.25;;;16.00;82.30;;;;;;5005558;28;20026;-77
2022/10/14 07:29:04;;;;;;;7.55;4.47;;;16.00;82.40;;;;;;5006711;28;20037;-76
2022/10/14 07:31:29;;;;;;;7.53;4.47;;;16.00;82.40;;;;;;5005498;28;20149;-77
2022/10/14 07:33:55;;;;;;;6.75;4.18;;;16.00;82.40;;;;;;5005448;28;20120;-77
2022/10/14 07:36:20;;;;;;;6.30;3.95;;;16.00;82.30;;;;;;5006440;28;20065;-76
2022/10/14 07:38:47;;;;;;;7.30;4.05;;;16.00;82.20;;;;;;5006510;28;20033;-76
2022/10/14 07:41:16;;;;;;;6.35;3.80;;;16.00;82.70;;;;;;5006416;28;20479;-76
2022/10/14 07:43:48;;;;;;;6.80;4.10;;;16.10;82.20;;;;;;5006332;28;20022;-76
2022/10/14 07:46:15;;;;;;;6.40;3.70;;;16.10;82.10;;;;;;5005281;28;20029;-77
2022/10/14 07:48:41;;;;;;;7.65;4.50;;;16.10;82.00;;;;;;5005635;28;20041;-76
2022/10/14 07:51:07;;;;;;;6.60;4.30;;;16.10;82.00;;;;;;5004783;28;20022;-77
2022/10/14 07:53:34;;;;;;;6.30;3.92;;;16.10;82.00;;;;;;5006473;28;20034;-76
2022/10/14 07:56:00;;;;;;;7.05;4.10;;;16.10;82.00;;;;;;5005589;28;20041;-77
2022/10/14 07:58:30;;;;;;;7.32;4.28;;;16.10;82.00;;;;;;5006792;28;20809;-77
2022/10/14 08:00:58;;;;;;;6.97;4.57;;;16.10;82.00;;;;;;5004427;28;20026;-77
2022/10/14 08:03:24;;;;;;;7.05;4.32;;;16.10;82.10;;;;;;5006288;28;20044;-78
2022/10/14 08:05:56;;;;;;;7.55;4.93;;;16.20;82.20;;;;;;5006379;28;20057;-77
2022/10/14 08:08:23;;;;;;;7.35;4.45;;;16.10;82.20;;;;;;5006696;28;20450;-77
2022/10/14 08:10:48;;;;;;;7.15;4.38;;;16.10;82.30;;;;;;5004196;28;20026;-77
2022/10/14 08:13:14;;;;;;;8.48;4.60;;;16.10;82.30;;;;;;5006392;28;20026;-78
2022/10/14 08:15:41;;;;;;;7.40;4.43;;;16.10;82.30;;;;;;5004837;28;20037;-77
2022/10/14 08:18:09;;;;;;;6.57;4.00;;;16.20;81.90;;;;;;5004512;28;20028;-77
2022/10/14 08:20:35;;;;;;;6.68;4.15;;;16.20;81.70;;;;;;5004877;28;20445;-77
2022/10/14 08:23:01;;;;;;;6.57;4.20;;;16.20;81.60;;;;;;5005824;28;20061;-77
2022/10/14 08:25:27;;;;;;;6.72;4.10;;;16.20;81.50;;;;;;5004287;28;20177;-78
2022/10/14 08:27:56;;;;;;;6.53;4.10;;;16.20;81.60;;;;;;5006215;28;20097;-77
2022/10/14 08:30:22;;;;;;;7.40;4.13;;;16.20;81.60;;;;;;5004642;28;20438;-76
2022/10/14 08:32:47;;;;;;;7.07;4.40;;;16.20;81.70;;;;;;5006050;28;20029;-77
2022/10/14 08:35:13;;;;;;;7.53;4.40;;;16.20;81.60;;;;;;5005344;28;20097;-76
2022/10/14 08:37:38;;;;;;;7.00;4.05;;;16.30;81.50;;;;;;5005126;28;20495;-77
2022/10/14 08:40:05;;;;;;;7.13;4.00;;;16.30;81.40;;;;;;5004538;28;20443;-76
2022/10/14 08:42:49;;;;;;;6.75;4.20;;;16.30;81.30;;;;;;5005021;28;20104;-77
2022/10/14 08:45:20;;;;;;;6.70;4.10;;;16.40;81.20;;;;;;5004345;28;20025;-76
2022/10/14 08:47:47;;;;;;;6.72;3.97;;;16.40;81.00;;;;;;5004549;28;20052;-77
2022/10/14 08:50:27;;;;;;;6.35;3.92;;;16.40;80.90;;;;;;5004075;28;20018;-77
2022/10/14 08:53:05;;;;;;;6.35;3.83;;;16.50;80.90;;;;;;5004121;28;20034;-77
2022/10/14 08:55:40;;;;;;;6.78;4.30;;;16.50;81.00;;;;;;5005791;28;20022;-76
2022/10/14 08:58:20;;;;;;;6.43;3.90;;;16.50;81.10;;;;;;5005612;28;20026;-77
2022/10/14 09:00:50;;;;;;;6.60;3.90;;;16.40;81.10;;;;;;5005079;28;20121;-76
2022/10/14 09:03:20;;;;;;;6.88;4.18;;;16.40;81.40;;;;;;5005202;28;20531;-77
2022/10/14 09:05:59;;;;;;;5.83;3.67;;;16.30;81.90;;;;;;5005583;28;20052;-76
2022/10/14 09:08:46;;;;;;;7.57;4.05;;;16.30;81.60;;;;;;5005747;28;20940;-77
2022/10/14 09:11:16;;;;;;;6.45;4.00;;;16.30;81.70;;;;;;5003562;28;20112;-76
2022/10/14 09:13:45;;;;;;;6.72;4.10;;;16.20;81.70;;;;;;5005440;28;20049;-77
2022/10/14 09:16:20;;;;;;;6.20;3.60;;;16.30;81.80;;;;;;5005548;28;20064;-77
2022/10/14 09:18:58;;;;;;;6.90;3.90;;;16.20;81.70;;;;;;5005830;28;20072;-76
2022/10/14 09:21:44;;;;;;;6.35;3.95;;;16.20;81.90;;;;;;5003949;28;20049;-76
2022/10/14 09:24:34;;;;;;;6.93;3.85;;;16.20;81.90;;;;;;5003695;28;20053;-77
2022/10/14 09:27:14;;;;;;;6.70;4.10;;;16.20;82.00;;;;;;5003884;28;20037;-75
2022/10/14 09:29:44;;;;;;;6.53;4.05;;;16.20;82.00;;;;;;5005527;28;20018;-76
2022/10/14 09:32:30;;;;;;;5.80;3.40;;;16.20;82.00;;;;;;5003335;28;20026;-76
2022/10/14 09:34:57;;;;;;;6.22;3.88;;;16.20;81.90;;;;;;5003902;28;20108;-76
2022/10/14 09:37:33;;;;;;;6.20;3.85;;;16.20;82.00;;;;;;5004043;28;20033;-76
2022/10/14 09:40:15;;;;;;;5.82;3.50;;;16.20;82.10;;;;;;5003661;28;20511;-77
2022/10/14 09:43:09;;;;;;;6.63;3.70;;;16.20;82.00;;;;;;5003412;28;20033;-76
2022/10/14 09:45:46;;;;;;;6.03;3.60;;;16.20;82.50;;;;;;5005046;28;20405;-76
2022/10/14 09:48:16;;;;;;;5.90;3.65;;;16.20;81.90;;;;;;5006894;28;20675;-76
2022/10/14 09:50:50;;;;;;;5.82;3.38;;;16.20;81.80;;;;;;5008246;28;20202;-76
2022/10/14 09:53:24;;;;;;;5.57;3.40;;;16.20;81.90;;;;;;5008711;28;20022;-77
2022/10/14 09:56:09;;;;;;;5.43;3.22;;;16.20;81.90;;;;;;5007170;28;20045;-75
2022/10/14 09:58:43;;;;;;;6.00;3.63;;;16.30;82.00;;;;;;5007192;28;20033;-75
2022/10/14 10:01:18;;;;;;;6.07;4.00;;;16.30;81.90;;;;;;5008348;28;20045;-74
2022/10/14 10:03:44;;;;;;;5.93;3.40;;;16.30;81.80;;;;;;5008048;28;20095;-75
2022/10/14 10:06:13;;;;;;;5.82;3.20;;;16.30;81.80;;;;;;5008266;28;20153;-75
2022/10/14 10:08:54;;;;;;;6.28;3.83;;;16.30;81.70;;;;;;5007183;28;20562;-75
2022/10/14 10:11:27;;;;;;;;;;;16.40;81.40;;;;;;5006346;28;20022;-75
2022/10/14 10:13:54;;;;;;;5.97;3.63;;;16.40;81.30;;;;;;5006875;28;20282;-77
2022/10/14 10:16:33;;;;;;;5.72;3.30;;;16.50;81.20;;;;;;5007884;28;20026;-75
2022/10/14 10:19:25;;;;;;;5.95;3.42;;;16.50;81.20;;;;;;5007762;28;20022;-75
2022/10/14 10:21:51;;;;;;;5.90;3.40;;;16.40;81.10;;;;;;5007563;28;20076;-75
2022/10/14 10:24:20;;;;;;;5.22;3.03;;;16.40;81.30;;;;;;5008064;28;20037;-75
2022/10/14 10:26:46;;;;;;;6.35;3.70;;;16.40;81.40;;;;;;5006635;28;20503;-74
2022/10/14 10:29:24;;;;;;;5.97;3.30;;;16.40;81.60;;;;;;5007911;28;20038;-76
2022/10/14 10:32:11;;;;;;;5.43;3.42;;;16.30;82.30;;;;;;5007861;28;20121;-77
2022/10/14 10:35:03;;;;;;;5.05;3.10;;;16.30;81.80;;;;;;5006858;28;20024;-76
2022/10/14 10:38:05;;;;;;;5.38;3.25;;;16.30;81.90;;;;;;5007971;28;20246;-77
2022/10/14 10:41:09;;;;;;;6.05;3.40;;;16.30;82.00;;;;;;5006071;28;20077;-77
2022/10/14 10:43:48;;;;;;;5.30;3.00;;;16.30;81.90;;;;;;5007780;28;20056;-74
2022/10/14 10:46:50;;;;;;;5.80;3.50;;;16.40;81.60;;;;;;5006048;28;20057;-75
2022/10/14 10:49:27;;;;;;;4.93;2.80;;;16.50;81.30;;;;;;5006370;28;20022;-75
2022/10/14 10:51:54;;;;;;;5.63;3.40;;;16.50;81.30;;;;;;5006984;28;20106;-75
2022/10/14 10:54:27;;;;;;;5.95;3.22;;;16.50;81.20;;;;;;5007148;28;20029;-75
2022/10/14 10:57:05;;;;;;;5.25;3.00;;;16.60;81.00;;;;;;5006175;28;20434;-75
2022/10/14 10:59:34;;;;;;;5.32;2.97;;;16.60;81.10;;;;;;5006352;28;20809;-75
2022/10/14 11:02:25;;;;;;;5.65;3.13;;;16.60;81.00;;;;;;5006994;28;20030;-76
2022/10/14 11:05:01;;;;;;;4.88;3.00;;;16.60;80.90;;;;;;5007005;28;20034;-74
2022/10/14 11:14:29;;;;;;;4.97;2.90;;;16.50;81.10;;;;;;5007320;28;20404;-75
2022/10/14 11:17:00;;;;;;;5.03;2.95;;;16.50;81.30;;;;;;4987288;28;20170;-77
2022/10/14 11:19:47;;;;;;;4.93;2.88;;;16.50;81.50;;;;;;5006899;28;21008;-75
2022/10/14 11:22:29;;;;;;;5.18;3.15;;;16.50;81.60;;;;;;5006502;28;20067;-75
2022/10/14 11:25:04;;;;;;;5.00;3.08;;;16.50;81.60;;;;;;5006727;28;20040;-75
2022/10/14 11:27:58;;;;;;;5.15;2.80;;;16.40;81.70;;;;;;5005288;28;20496;-75
2022/10/14 11:30:43;;;;;;;4.95;2.80;;;16.40;81.80;;;;;;5006543;28;20842;-75
2022/10/14 11:33:37;;;;;;;5.18;2.92;;;16.40;81.80;;;;;;5006775;28;20022;-76
2022/10/14 11:36:35;;;;;;;5.18;2.95;;;16.40;81.90;;;;;;5006700;28;20029;-75
2022/10/14 11:39:29;;;;;;;4.72;2.72;;;16.30;81.80;;;;;;5006780;28;20034;-78
2022/10/14 11:42:19;;;;;;;5.22;3.03;;;16.30;81.90;;;;;;5006027;28;20121;-75
2022/10/14 11:44:46;;;;;;;4.78;2.97;;;16.30;81.90;;;;;;4995445;28;20569;-76
2022/10/14 11:47:20;;;;;;;4.80;2.72;;;16.40;82.10;;;;;;5006475;28;20022;-75
2022/10/14 11:50:05;;;;;;;4.90;2.85;;;16.30;82.10;;;;;;5005296;28;20036;-75
2022/10/14 11:52:40;;;;;;;4.35;2.50;;;16.30;82.00;;;;;;5004849;28;20029;-77
2022/10/14 11:55:31;;;;;;;5.15;2.78;;;16.30;82.10;;;;;;5006602;28;20026;-77
2022/10/14 11:57:58;;;;;;;;;;;16.30;82.10;;;;;;5005686;28;20081;-77
2022/10/14 12:00:28;;;;;;;4.35;2.50;;;16.30;82.20;;;;;;5006237;28;19916;-77
2022/10/14 12:03:12;;;;;;;4.65;2.63;;;16.40;82.00;;;;;;5007458;28;20033;-78
2022/10/14 12:05:43;;;;;;;4.43;2.50;;;16.40;81.90;;;;;;5004900;28;20496;-77
2022/10/14 12:08:32;;;;;;;4.30;2.50;;;16.40;81.80;;;;;;5004908;28;20034;-76
2022/10/14 12:11:32;;;;;;;5.35;2.80;;;16.50;81.60;;;;;;5005859;28;20030;-77
2022/10/14 12:14:19;;;;;;;4.30;2.47;;;16.50;81.70;;;;;;5002981;28;20504;-77
2022/10/14 12:16:47;;;;;;;4.60;2.60;;;16.50;81.40;;;;;;5004833;28;20026;-76
2022/10/14 12:19:25;;;;;;;5.05;2.95;;;16.50;81.90;;;;;;5006504;28;20533;-77
2022/10/14 12:22:17;;;;;;;3.63;2.20;;;16.50;81.40;;;;;;5004606;28;20030;-78
2022/10/14 12:24:49;;;;;;;3.90;2.22;;;16.50;81.40;;;;;;5006986;28;20030;-77
2022/10/14 12:27:17;;;;;;;4.50;2.50;;;16.50;81.40;;;;;;5004903;28;20607;-77
2022/10/14 12:29:46;;;;;;;4.50;2.55;;;16.50;81.50;;;;;;5006317;28;20076;-77
2022/10/14 12:32:28;;;;;;;4.15;2.50;;;16.40;81.60;;;;;;5005946;28;20052;-77
2022/10/14 12:35:00;;;;;;;4.28;2.50;;;16.40;81.60;;;;;;5005830;28;20037;-77
2022/10/14 12:37:36;;;;;;;;;;;16.40;81.70;;;;;;5002953;28;20037;-75
2022/10/14 12:40:02;;;;;;;4.60;2.65;;;16.40;81.80;;;;;;5004329;28;19907;-77
2022/10/14 12:43:04;;;;;;;4.60;2.33;;;16.40;81.90;;;;;;5006361;28;20291;-77
2022/10/14 12:45:33;;;;;;;4.90;2.60;;;16.40;81.90;;;;;;5004105;28;20419;-77
2022/10/14 12:48:17;;;;;;;3.50;2.28;;;16.40;82.00;;;;;;5004229;28;20076;-75
2022/10/14 12:50:45;;;;;;;3.42;2.28;;;16.40;82.10;;;;;;5005091;28;20023;-78
2022/10/14 12:53:25;;;;;;;4.60;2.50;;;16.30;82.10;;;;;;5005822;28;20032;-77
2022/10/14 12:55:59;;;;;;;4.07;2.20;;;16.40;82.20;;;;;;5005913;28;20034;-78
2022/10/14 12:58:36;;;;;;;4.63;2.78;;;16.40;82.10;;;;;;5005679;28;20065;-77
2022/10/14 13:01:15;;;;;;;4.55;2.45;;;16.30;82.10;;;;;;5003893;28;20034;-77
2022/10/14 13:03:52;;;;;;;3.88;2.28;;;16.30;82.20;;;;;;5004379;28;20030;-77
2022/10/14 13:06:30;;;;;;;4.18;2.38;;;16.30;82.20;;;;;;5005738;28;20030;-77
2022/10/14 13:09:11;;;;;;;3.83;2.20;;;16.40;82.30;;;;;;5004023;28;20530;-79
2022/10/14 13:12:04;;;;;;;3.90;2.35;;;16.30;82.10;;;;;;5004932;28;20425;-77
2022/10/14 13:14:57;;;;;;;3.22;1.95;;;16.40;82.10;;;;;;4994314;28;20431;-78
2022/10/14 13:17:45;;;;;;;3.78;2.05;;;16.40;82.00;;;;;;5005791;28;20033;-78